createdAt,value
2019-06-01T00:01:44.673Z,96927.57
2019-06-01T00:04:13.295Z,96930.23
2019-06-01T00:06:42.794Z,96910.97
2019-06-01T00:09:11.376Z,96924.25
2019-06-01T00:11:41.139Z,96927.99
2019-06-01T00:14:09.737Z,96920.89
2019-06-01T00:16:39.833Z,96917.08
2019-06-01T00:19:08.502Z,96918.75
2019-06-01T00:21:36.994Z,96918.46
2019-06-01T00:24:05.556Z,96917.10
2019-06-01T00:26:34.076Z,96916.13
2019-06-01T00:29:02.561Z,96919.84
2019-06-01T00:31:31.092Z,96914.34
2019-06-01T00:33:59.592Z,96915.52
2019-06-01T00:36:28.142Z,96924.52
2019-06-01T00:38:56.643Z,96919.26
2019-06-01T00:41:25.198Z,96922.68
2019-06-01T00:43:53.690Z,96921.73
2019-06-01T00:46:22.223Z,96923.27
2019-06-01T00:48:51.997Z,96908.30
2019-06-01T00:51:20.685Z,96914.13
2019-06-01T00:53:49.638Z,96913.55
2019-06-01T00:56:18.340Z,96916.19
2019-06-01T00:58:47.842Z,96913.49
2019-06-01T01:01:16.336Z,96912.23
2019-06-01T01:03:45.974Z,96911.78
2019-06-01T01:06:14.546Z,96909.06
2019-06-01T01:08:43.045Z,96905.38
2019-06-01T01:11:11.570Z,96903.31
2019-06-01T01:13:40.158Z,96900.89
2019-06-01T01:16:08.641Z,96906.09
2019-06-01T01:18:37.133Z,96903.38
2019-06-01T01:21:05.731Z,96903.58
2019-06-01T01:23:34.203Z,96906.30
2019-06-01T01:26:02.899Z,96904.14
2019-06-01T01:28:31.412Z,96907.51
2019-06-01T01:31:12.422Z,96907.80
2019-06-01T01:33:30.176Z,96908.66
2019-06-01T01:35:58.656Z,96907.78
2019-06-01T01:38:27.232Z,96898.63
2019-06-01T01:40:56.233Z,96898.27
2019-06-01T01:43:24.823Z,96901.22
2019-06-01T01:45:53.320Z,96899.13
2019-06-01T01:48:21.829Z,96896.81
2019-06-01T01:50:50.341Z,96893.47
2019-06-01T01:53:18.806Z,96893.35
2019-06-01T01:55:47.266Z,96879.52
2019-06-01T01:58:15.791Z,96894.09
2019-06-01T02:00:48.210Z,96896.20
2019-06-01T02:03:16.692Z,96881.20
2019-06-01T02:05:45.275Z,96894.86
2019-06-01T02:08:14.092Z,96889.48
2019-06-01T02:10:42.658Z,96883.44
2019-06-01T02:13:11.264Z,96883.14
2019-06-01T02:15:41.489Z,96883.67
2019-06-01T02:18:10.061Z,96875.31
2019-06-01T02:20:38.546Z,96870.05
2019-06-01T02:23:07.190Z,96883.33
2019-06-01T02:25:35.932Z,96877.71
2019-06-01T02:28:06.192Z,96877.94
2019-06-01T02:30:34.676Z,96865.56
2019-06-01T02:33:04.625Z,96874.47
2019-06-01T02:35:33.358Z,96875.66
2019-06-01T02:38:03.148Z,96868.34
2019-06-01T02:40:32.216Z,96862.98
2019-06-01T02:43:01.400Z,96867.82
2019-06-01T02:45:31.046Z,96858.75
2019-06-01T02:48:01.495Z,96865.83
2019-06-01T02:50:30.247Z,96867.06
2019-06-01T02:52:59.413Z,96861.03
2019-06-01T02:55:27.892Z,96868.48
2019-06-01T02:57:56.508Z,96872.95
2019-06-01T03:00:47.625Z,96871.23
2019-06-01T03:03:16.597Z,96871.26
2019-06-01T03:05:46.922Z,96853.22
2019-06-01T03:08:17.407Z,96875.78
2019-06-01T03:10:47.979Z,96874.09
2019-06-01T03:13:19.395Z,96876.31
2019-06-01T03:15:48.310Z,96878.55
2019-06-01T03:18:18.504Z,96870.38
2019-06-01T03:20:50.088Z,96877.39
2019-06-01T03:23:20.237Z,96867.05
2019-06-01T03:25:51.313Z,96881.58
2019-06-01T03:28:22.864Z,96880.22
2019-06-01T03:30:51.385Z,96880.33
2019-06-01T03:33:19.956Z,96885.00
2019-06-01T03:35:48.502Z,96882.44
2019-06-01T03:38:17.081Z,96878.38
2019-06-01T03:40:45.571Z,96882.81
2019-06-01T03:43:14.436Z,96878.55
2019-06-01T03:45:42.948Z,96889.24
2019-06-01T03:48:11.507Z,96885.22
2019-06-01T03:50:39.985Z,96891.11
2019-06-01T03:53:08.479Z,96890.26
2019-06-01T03:55:36.955Z,96886.19
2019-06-01T03:58:05.506Z,96888.52
2019-06-01T04:00:34.010Z,96894.17
2019-06-01T04:03:02.896Z,96894.44
2019-06-01T04:05:31.556Z,96889.81
2019-06-01T04:08:01.251Z,96889.09
2019-06-01T04:10:29.844Z,96882.54
2019-06-01T04:12:58.315Z,96885.13
2019-06-01T04:15:26.784Z,96885.73
2019-06-01T04:17:55.307Z,96886.22
2019-06-01T04:20:23.769Z,96889.68
2019-06-01T04:22:52.287Z,96878.61
2019-06-01T04:25:20.784Z,96896.92
2019-06-01T04:27:49.304Z,96886.72
2019-06-01T04:30:19.383Z,96895.88
2019-06-01T04:32:50.259Z,96895.34
2019-06-01T04:35:18.084Z,96895.76
2019-06-01T04:37:46.612Z,96901.06
2019-06-01T04:40:15.240Z,96901.97
2019-06-01T04:42:43.821Z,96902.48
2019-06-01T04:45:12.640Z,96906.39
2019-06-01T04:47:41.185Z,96903.76
2019-06-01T04:50:11.015Z,96902.83
2019-06-01T04:52:39.883Z,96905.94
2019-06-01T04:55:09.108Z,96910.98
2019-06-01T04:57:37.620Z,96906.56
2019-06-01T05:00:12.585Z,96903.55
2019-06-01T05:02:38.023Z,96910.76
2019-06-01T05:05:07.403Z,96918.78
2019-06-01T05:07:35.839Z,96913.94
2019-06-01T05:10:09.562Z,96915.97
2019-06-01T05:12:37.996Z,96912.96
2019-06-01T05:15:13.974Z,96917.59
2019-06-01T05:17:42.593Z,96922.90
2019-06-01T05:20:14.588Z,96916.68
2019-06-01T05:22:43.348Z,96921.27
2019-06-01T05:25:13.569Z,96925.94
2019-06-01T05:27:42.474Z,96921.05
2019-06-01T05:30:11.556Z,96918.86
2019-06-01T05:32:40.137Z,96917.69
2019-06-01T05:35:09.692Z,96915.95
2019-06-01T05:37:38.267Z,96922.52
2019-06-01T05:40:10.341Z,96908.92
2019-06-01T05:42:39.037Z,96925.02
2019-06-01T05:45:09.365Z,96920.55
2019-06-01T05:47:37.892Z,96916.60
2019-06-01T05:50:08.112Z,96919.69
2019-06-01T05:52:37.059Z,96913.63
2019-06-01T05:55:08.714Z,96906.55
2019-06-01T05:57:37.271Z,96910.20
2019-06-01T06:00:13.130Z,96904.11
2019-06-01T06:02:41.799Z,96902.15
2019-06-01T06:05:10.977Z,96905.69
2019-06-01T06:07:39.529Z,96897.45
2019-06-01T06:10:08.653Z,96896.24
2019-06-01T06:12:37.176Z,96890.30
2019-06-01T06:15:06.838Z,96892.97
2019-06-01T06:17:35.497Z,96886.64
2019-06-01T06:20:06.174Z,96887.55
2019-06-01T06:22:34.700Z,96885.37
2019-06-01T06:25:03.372Z,96886.12
2019-06-01T06:27:32.036Z,96879.19
2019-06-01T06:30:00.509Z,96881.91
2019-06-01T06:32:29.049Z,96880.09
2019-06-01T06:34:57.610Z,96878.55
2019-06-01T06:37:26.168Z,96874.89
2019-06-01T06:39:54.684Z,96872.81
2019-06-01T06:42:24.343Z,96882.45
2019-06-01T06:44:53.049Z,96879.78
2019-06-01T06:47:21.602Z,96879.89
2019-06-01T06:49:50.108Z,96875.95
2019-06-01T06:52:19.506Z,96861.34
2019-06-01T06:54:48.179Z,96873.72
2019-06-01T06:57:17.895Z,96861.81
2019-06-01T06:59:46.534Z,96869.14
2019-06-01T07:02:15.028Z,96870.30
2019-06-01T07:04:43.585Z,96865.34
2019-06-01T07:07:12.054Z,96859.39
2019-06-01T07:09:40.621Z,96864.76
2019-06-01T07:12:09.117Z,96861.69
2019-06-01T07:14:37.700Z,96862.75
2019-06-01T07:17:06.240Z,96861.58
2019-06-01T07:19:34.776Z,96865.39
2019-06-01T07:22:03.342Z,96868.44
2019-06-01T07:24:32.324Z,96862.05
2019-06-01T07:27:00.866Z,96867.45
2019-06-01T07:29:29.481Z,96867.45
2019-06-01T07:31:57.983Z,96855.94
2019-06-01T07:34:33.506Z,96868.87
2019-06-01T07:36:56.723Z,96872.31
2019-06-01T07:39:26.749Z,96870.72
2019-06-01T07:41:55.375Z,96859.84
2019-06-01T07:44:25.029Z,96866.44
2019-06-01T07:46:53.648Z,96863.72
2019-06-01T07:49:23.234Z,96853.91
2019-06-01T07:51:51.958Z,96867.69
2019-06-01T07:54:20.507Z,96852.19
2019-06-01T07:56:49.020Z,96851.44
2019-06-01T07:59:17.659Z,96853.64
2019-06-01T08:01:46.157Z,96850.39
2019-06-01T08:04:14.717Z,96843.48
2019-06-01T08:06:47.342Z,96823.73
2019-06-01T08:09:13.581Z,96834.62
2019-06-01T08:11:42.102Z,96834.30
2019-06-01T08:14:10.636Z,96829.61
2019-06-01T08:16:39.125Z,96821.52
2019-06-01T08:19:07.658Z,96814.56
2019-06-01T08:21:36.195Z,96815.88
2019-06-01T08:24:04.761Z,96809.61
2019-06-01T08:26:33.442Z,96812.60
2019-06-01T08:29:01.961Z,96812.60
2019-06-01T08:31:31.855Z,96812.13
2019-06-01T08:34:00.697Z,96804.91
2019-06-01T08:36:29.554Z,96804.46
2019-06-01T08:38:58.084Z,96809.55
2019-06-01T08:41:27.587Z,96804.86
2019-06-01T08:43:56.174Z,96793.20
2019-06-01T08:46:25.557Z,96803.30
2019-06-01T08:48:54.057Z,96798.53
2019-06-01T08:51:23.823Z,96804.38
2019-06-01T08:53:52.450Z,96799.03
2019-06-01T08:56:21.944Z,96799.12
2019-06-01T08:58:50.654Z,96794.03
2019-06-01T09:01:19.173Z,96794.45
2019-06-01T09:03:47.697Z,96789.68
2019-06-01T09:06:16.282Z,96789.12
2019-06-01T09:08:44.822Z,96786.83
2019-06-01T09:11:13.487Z,96787.27
2019-06-01T09:13:41.934Z,96778.19
2019-06-01T09:16:10.550Z,96778.05
2019-06-01T09:18:39.079Z,96781.16
2019-06-01T09:21:07.634Z,96781.42
2019-06-01T09:23:37.507Z,96768.53
2019-06-01T09:26:06.663Z,96778.48
2019-06-01T09:28:36.230Z,96777.44
2019-06-01T09:31:04.957Z,96763.23
2019-06-01T09:33:35.054Z,96786.38
2019-06-01T09:36:03.662Z,96773.77
2019-06-01T09:38:32.200Z,96771.40
2019-06-01T09:41:00.748Z,96784.92
2019-06-01T09:43:29.243Z,96783.78
2019-06-01T09:45:57.754Z,96779.25
2019-06-01T09:48:27.067Z,96777.05
2019-06-01T09:50:55.629Z,96785.05
2019-06-01T09:53:24.123Z,96781.73
2019-06-01T09:55:52.629Z,96778.84
2019-06-01T09:58:21.969Z,96781.83
2019-06-01T10:00:50.600Z,96774.80
2019-06-01T10:03:19.094Z,96781.69
2019-06-01T10:06:01.425Z,96776.70
2019-06-01T10:08:17.829Z,96769.22
2019-06-01T10:10:46.300Z,96773.25
2019-06-01T10:13:14.890Z,96762.89
2019-06-01T10:15:43.533Z,96765.47
2019-06-01T10:18:12.241Z,96761.34
2019-06-01T10:20:41.377Z,96756.49
2019-06-01T10:23:10.000Z,96754.45
2019-06-01T10:25:38.613Z,96755.30
2019-06-01T10:28:07.191Z,96756.00
2019-06-01T10:30:35.836Z,96757.53
2019-06-01T10:33:04.702Z,96758.43
2019-06-01T10:35:33.243Z,96744.05
2019-06-01T10:38:01.750Z,96752.88
2019-06-01T10:40:31.249Z,96755.11
2019-06-01T10:42:59.811Z,96753.70
2019-06-01T10:45:28.275Z,96751.66
2019-06-01T10:47:56.781Z,96741.88
2019-06-01T10:50:25.360Z,96741.50
2019-06-01T10:52:53.897Z,96737.92
2019-06-01T10:55:22.498Z,96740.67
2019-06-01T10:57:51.006Z,96733.67
2019-06-01T11:00:37.114Z,96740.08
2019-06-01T11:02:51.617Z,96738.86
2019-06-01T11:05:20.327Z,96735.84
2019-06-01T11:07:48.954Z,96729.06
2019-06-01T11:10:17.672Z,96730.84
2019-06-01T11:12:46.185Z,96720.60
2019-06-01T11:15:15.181Z,96722.47
2019-06-01T11:17:43.752Z,96722.36
2019-06-01T11:20:15.762Z,96725.91
2019-06-01T11:22:44.280Z,96724.22
2019-06-01T11:25:13.223Z,96727.55
2019-06-01T11:27:42.033Z,96719.45
2019-06-01T11:30:11.119Z,96715.81
2019-06-01T11:32:41.607Z,96724.10
2019-06-01T11:35:10.397Z,96717.81
2019-06-01T11:37:38.868Z,96711.16
2019-06-01T11:40:07.822Z,96713.00
2019-06-01T11:42:36.939Z,96709.58
2019-06-01T11:45:08.762Z,96704.30
2019-06-01T11:47:37.309Z,96704.11
2019-06-01T11:50:09.817Z,96705.98
2019-06-01T11:52:39.182Z,96703.80
2019-06-01T11:55:09.443Z,96700.58
2019-06-01T11:57:39.355Z,96694.58
2019-06-01T12:00:13.201Z,96697.09
2019-06-01T12:02:41.908Z,96691.66
2019-06-01T12:05:11.024Z,96690.87
2019-06-01T12:07:39.982Z,96688.21
2019-06-01T12:10:08.893Z,96686.66
2019-06-01T12:12:38.281Z,96684.47
2019-06-01T12:15:07.746Z,96683.17
2019-06-01T12:17:36.574Z,96682.18
2019-06-01T12:20:07.511Z,96679.17
2019-06-01T12:22:36.749Z,96676.05
2019-06-01T12:25:06.427Z,96676.63
2019-06-01T12:27:34.915Z,96661.58
2019-06-01T12:30:05.040Z,96674.31
2019-06-01T12:32:33.563Z,96667.88
2019-06-01T12:35:03.329Z,96661.34
2019-06-01T12:37:45.544Z,96659.22
2019-06-01T12:40:02.366Z,96654.09
2019-06-01T12:42:30.979Z,96653.99
2019-06-01T12:44:59.455Z,96643.97
2019-06-01T12:47:28.034Z,96649.77
2019-06-01T12:49:56.628Z,96643.50
2019-06-01T12:52:25.253Z,96640.94
2019-06-01T12:54:53.758Z,96630.63
2019-06-01T12:57:22.288Z,96628.66
2019-06-01T12:59:51.238Z,96622.70
2019-06-01T13:02:19.891Z,96619.80
2019-06-01T13:04:49.114Z,96610.57
2019-06-01T13:07:17.842Z,96614.77
2019-06-01T13:09:46.389Z,96614.45
2019-06-01T13:12:14.896Z,96611.59
2019-06-01T13:14:43.527Z,96612.16
2019-06-01T13:17:12.031Z,96610.97
2019-06-01T13:19:41.308Z,96602.66
2019-06-01T13:22:09.878Z,96605.91
2019-06-01T13:24:38.521Z,96603.34
2019-06-01T13:27:07.107Z,96605.13
2019-06-01T13:29:35.775Z,96599.38
2019-06-01T13:32:04.410Z,96598.18
2019-06-01T13:34:34.133Z,96594.06
2019-06-01T13:37:03.064Z,96591.30
2019-06-01T13:39:31.601Z,96593.51
2019-06-01T13:42:00.122Z,96588.39
2019-06-01T13:44:28.704Z,96583.88
2019-06-01T13:46:57.217Z,96578.72
2019-06-01T13:49:25.757Z,96574.70
2019-06-01T13:51:54.711Z,96569.94
2019-06-01T13:54:23.312Z,96573.91
2019-06-01T13:56:53.035Z,96566.23
2019-06-01T13:59:21.622Z,96558.23
2019-06-01T14:01:51.405Z,96554.69
2019-06-01T14:04:20.141Z,96554.18
2019-06-01T14:06:49.020Z,96551.50
2019-06-01T14:09:17.636Z,96550.38
2019-06-01T14:11:47.369Z,96542.77
2019-06-01T14:14:15.998Z,96541.20
2019-06-01T14:16:45.446Z,96543.42
2019-06-01T14:19:14.099Z,96539.50
2019-06-01T14:21:42.538Z,96542.32
2019-06-01T14:24:11.069Z,96539.64
2019-06-01T14:26:39.614Z,96529.09
2019-06-01T14:29:08.089Z,96536.61
2019-06-01T14:31:36.565Z,96533.28
2019-06-01T14:34:05.406Z,96538.42
2019-06-01T14:36:33.938Z,96533.84
2019-06-01T14:39:02.464Z,96535.45
2019-06-01T14:41:30.987Z,96533.28
2019-06-01T14:43:59.568Z,96534.84
2019-06-01T14:46:28.138Z,96531.56
2019-06-01T14:49:21.153Z,96533.58
2019-06-01T14:51:57.883Z,96527.05
2019-06-01T14:54:26.364Z,96528.30
2019-06-01T14:56:55.892Z,96515.41
2019-06-01T14:59:24.491Z,96526.32
2019-06-01T15:01:54.534Z,96525.94
2019-06-01T15:04:23.231Z,96529.91
2019-06-01T15:06:58.633Z,96529.50
2019-06-01T15:09:27.250Z,96518.08
2019-06-01T15:11:56.581Z,96529.52
2019-06-01T15:14:25.224Z,96522.63
2019-06-01T15:16:56.382Z,96522.01
2019-06-01T15:19:24.902Z,96508.67
2019-06-01T15:21:54.132Z,96511.16
2019-06-01T15:24:22.718Z,96513.25
2019-06-01T15:26:52.430Z,96511.45
2019-06-01T15:29:21.056Z,96508.84
2019-06-01T15:31:50.987Z,96514.97
2019-06-01T15:34:19.630Z,96506.81
2019-06-01T15:36:48.180Z,96513.03
2019-06-01T15:39:24.622Z,96508.39
2019-06-01T15:41:46.972Z,96506.56
2019-06-01T15:44:15.491Z,96510.37
2019-06-01T15:46:44.061Z,96502.54
2019-06-01T15:49:12.581Z,96504.13
2019-06-01T15:51:41.094Z,96498.56
2019-06-01T15:54:09.627Z,96503.77
2019-06-01T15:56:38.216Z,96495.20
2019-06-01T15:59:06.780Z,96503.52
2019-06-01T16:01:35.288Z,96499.51
2019-06-01T16:04:03.857Z,96501.84
2019-06-01T16:06:32.339Z,96498.16
2019-06-01T16:09:01.787Z,96492.12
2019-06-01T16:11:30.642Z,96488.42
2019-06-01T16:13:59.903Z,96492.61
2019-06-01T16:16:28.757Z,96483.60
2019-06-01T16:19:02.506Z,96485.80
2019-06-01T16:21:27.473Z,96485.66
2019-06-01T16:23:56.372Z,96492.31
2019-06-01T16:26:24.935Z,96489.17
2019-06-01T16:28:54.366Z,96490.11
2019-06-01T16:31:22.901Z,96493.09
2019-06-01T16:33:51.599Z,96494.31
2019-06-01T16:36:20.076Z,96491.81
2019-06-01T16:38:48.585Z,96489.69
2019-06-01T16:41:17.172Z,96488.97
2019-06-01T16:43:45.756Z,96489.86
2019-06-01T16:46:14.254Z,96488.39
2019-06-01T16:48:42.831Z,96491.44
2019-06-01T16:51:11.460Z,96494.07
2019-06-01T16:53:40.045Z,96486.55
2019-06-01T16:56:08.803Z,96483.28
2019-06-01T16:58:37.383Z,96483.38
2019-06-01T17:01:06.677Z,96485.19
2019-06-01T17:03:35.391Z,96485.84
2019-06-01T17:06:04.803Z,96488.85
2019-06-01T17:08:33.347Z,96489.27
2019-06-01T17:11:02.751Z,96489.04
2019-06-01T17:13:31.486Z,96493.08
2019-06-01T17:16:00.989Z,96492.36
2019-06-01T17:18:29.554Z,96491.22
2019-06-01T17:20:59.181Z,96489.98
2019-06-01T17:23:30.602Z,96492.43
2019-06-01T17:25:58.426Z,96491.05
2019-06-01T17:28:27.034Z,96493.42
2019-06-01T17:30:55.522Z,96488.45
2019-06-01T17:33:24.047Z,96489.09
2019-06-01T17:35:52.556Z,96495.12
2019-06-01T17:38:21.137Z,96496.50
2019-06-01T17:40:49.731Z,96500.95
2019-06-01T17:43:18.222Z,96502.45
2019-06-01T17:45:46.834Z,96501.05
2019-06-01T17:48:25.493Z,96501.26
2019-06-01T17:50:45.725Z,96498.78
2019-06-01T17:53:14.333Z,96501.36
2019-06-01T17:55:42.981Z,96506.78
2019-06-01T17:58:27.533Z,96511.05
2019-06-01T18:00:56.172Z,96504.17
2019-06-01T18:03:24.764Z,96504.38
2019-06-01T18:05:53.360Z,96502.26
2019-06-01T18:08:21.986Z,96500.15
2019-06-01T18:10:54.654Z,96503.17
2019-06-01T18:13:20.927Z,96502.19
2019-06-01T18:15:50.246Z,96500.86
2019-06-01T18:18:19.844Z,96502.33
2019-06-01T18:20:48.427Z,96498.66
2019-06-01T18:23:16.901Z,96502.96
2019-06-01T18:25:45.456Z,96504.03
2019-06-01T18:28:18.539Z,96505.16
2019-06-01T18:30:44.540Z,96508.45
2019-06-01T18:33:13.315Z,96505.48
2019-06-01T18:35:42.038Z,96509.21
2019-06-01T18:38:12.755Z,96506.08
2019-06-01T18:40:40.977Z,96512.03
2019-06-01T18:43:13.999Z,96511.64
2019-06-01T18:45:43.414Z,96508.30
2019-06-01T18:48:12.389Z,96518.93
2019-06-01T18:50:41.043Z,96508.38
2019-06-01T18:53:10.048Z,96510.79
2019-06-01T18:55:38.732Z,96505.16
2019-06-01T18:58:08.252Z,96519.80
2019-06-01T19:00:39.528Z,96516.34
2019-06-01T19:03:08.863Z,96508.94
2019-06-01T19:05:37.712Z,96518.81
2019-06-01T19:08:07.161Z,96523.14
2019-06-01T19:10:36.039Z,96521.84
2019-06-01T19:13:05.619Z,96525.48
2019-06-01T19:15:34.523Z,96529.06
2019-06-01T19:18:03.183Z,96532.98
2019-06-01T19:20:33.496Z,96529.62
2019-06-01T19:23:02.179Z,96526.98
2019-06-01T19:25:30.804Z,96536.05
2019-06-01T19:27:59.530Z,96536.12
2019-06-01T19:30:37.035Z,96546.27
2019-06-01T19:33:06.884Z,96551.10
2019-06-01T19:35:35.553Z,96539.53
2019-06-01T19:38:04.657Z,96549.63
2019-06-01T19:40:38.965Z,96551.18
2019-06-01T19:43:09.618Z,96551.69
2019-06-01T19:45:38.287Z,96558.11
2019-06-01T19:48:08.354Z,96558.11
2019-06-01T19:50:37.242Z,96566.78
2019-06-01T19:53:05.892Z,96566.12
2019-06-01T19:55:34.777Z,96572.17
2019-06-01T19:58:03.388Z,96575.46
2019-06-01T20:00:31.985Z,96568.94
2019-06-01T20:03:00.600Z,96576.02
2019-06-01T20:05:29.284Z,96575.92
2019-06-01T20:07:57.980Z,96578.67
2019-06-01T20:10:26.720Z,96581.69
2019-06-01T20:12:55.209Z,96581.69
2019-06-01T20:15:23.825Z,96582.22
2019-06-01T20:17:52.342Z,96584.43
2019-06-01T20:20:21.490Z,96588.90
2019-06-01T20:22:50.082Z,96590.28
2019-06-01T20:25:19.544Z,96590.59
2019-06-01T20:27:48.096Z,96588.36
2019-06-01T20:30:17.730Z,96597.45
2019-06-01T20:32:46.348Z,96595.83
2019-06-01T20:35:16.031Z,96597.48
2019-06-01T20:37:44.552Z,96594.60
2019-06-01T20:40:14.224Z,96600.11
2019-06-01T20:42:42.760Z,96600.99
2019-06-01T20:45:12.517Z,96602.92
2019-06-01T20:47:41.116Z,96601.28
2019-06-01T20:50:10.546Z,96605.66
2019-06-01T20:52:39.216Z,96605.17
2019-06-01T20:55:08.535Z,96606.28
2019-06-01T20:57:37.155Z,96606.33
2019-06-01T21:00:10.299Z,96604.42
2019-06-01T21:02:38.918Z,96601.13
2019-06-01T21:05:08.305Z,96609.63
2019-06-01T21:07:37.029Z,96606.10
2019-06-01T21:10:09.514Z,96599.81
2019-06-01T21:12:46.141Z,96606.93
2019-06-01T21:15:09.261Z,96612.70
2019-06-01T21:17:37.892Z,96612.73
2019-06-01T21:20:10.455Z,96623.74
2019-06-01T21:22:54.383Z,96624.89
2019-06-01T21:25:32.129Z,96616.98
2019-06-01T21:28:00.611Z,96617.84
2019-06-01T21:30:29.230Z,96618.93
2019-06-01T21:32:57.757Z,96616.47
2019-06-01T21:35:26.557Z,96617.56
2019-06-01T21:37:55.098Z,96620.03
2019-06-01T21:40:23.660Z,96612.09
2019-06-01T21:43:03.141Z,96614.59
2019-06-01T21:45:23.652Z,96623.90
2019-06-01T21:47:52.397Z,96617.87
2019-06-01T21:50:22.142Z,96618.94
2019-06-01T21:52:50.861Z,96617.60
2019-06-01T21:55:20.154Z,96618.42
2019-06-01T21:57:48.678Z,96611.06
2019-06-01T22:00:31.257Z,96608.63
2019-06-01T22:02:59.947Z,96618.50
2019-06-01T22:05:31.425Z,96619.89
2019-06-01T22:08:00.027Z,96613.88
2019-06-01T22:10:35.297Z,96615.27
2019-06-01T22:13:17.529Z,96616.64
2019-06-01T22:15:34.128Z,96616.64
2019-06-01T22:18:02.730Z,96618.80
2019-06-01T22:20:31.582Z,96618.80
2019-06-01T22:23:00.044Z,96608.15
2019-06-01T22:25:28.630Z,96616.08
2019-06-01T22:27:57.140Z,96611.17
2019-06-01T22:30:26.417Z,96610.38
2019-06-01T22:32:54.950Z,96608.17
2019-06-01T22:35:24.658Z,96610.64
2019-06-01T22:37:53.307Z,96606.56
2019-06-01T22:40:22.778Z,96605.72
2019-06-01T22:42:51.314Z,96607.05
2019-06-01T22:45:20.090Z,96605.17
2019-06-01T22:47:48.642Z,96602.16
2019-06-01T22:50:17.307Z,96607.36
2019-06-01T22:52:45.868Z,96600.49
2019-06-01T22:55:14.646Z,96593.67
2019-06-01T22:57:43.464Z,96593.66
2019-06-01T23:00:12.355Z,96596.11
2019-06-01T23:02:40.899Z,96596.69
2019-06-01T23:05:09.592Z,96592.84
2019-06-01T23:07:38.101Z,96587.12
2019-06-01T23:10:06.950Z,96586.81
2019-06-01T23:12:35.471Z,96582.73
2019-06-01T23:15:05.236Z,96586.58
2019-06-01T23:17:33.729Z,96583.30
2019-06-01T23:20:02.245Z,96582.46
2019-06-01T23:22:32.321Z,96583.83
2019-06-01T23:25:00.890Z,96576.16
2019-06-01T23:27:31.086Z,96584.11
2019-06-01T23:29:59.627Z,96573.98
2019-06-01T23:32:28.541Z,96579.99
2019-06-01T23:34:57.036Z,96573.44
2019-06-01T23:37:26.498Z,96569.06
2019-06-01T23:39:55.220Z,96569.33
2019-06-01T23:42:24.540Z,96570.16
2019-06-01T23:44:53.117Z,96567.42
2019-06-01T23:47:22.936Z,96574.53
2019-06-01T23:49:51.751Z,96564.41
2019-06-01T23:52:20.264Z,96565.50
2019-06-01T23:54:48.777Z,96566.86
2019-06-01T23:57:17.258Z,96571.80
2019-06-01T23:59:45.884Z,96565.24
